Time;durP1;ratioP1;P1;durP2;ratioP2;P2;SDS_P1;SDS_P2;PMS_P1;PMS_P2;Temp;Humidity;BMP_temperature;BMP_pressure;BME280_temperature;BME280_humidity;BME280_pressure;Samples;Min_cycle;Max_cycle;Signal;HPM_P1;HPM_P2
2021/06/28 00:01:20;;;;;;;20.00;10.70;;;;;;;;;;4970552;28;20027;-76
2021/06/28 00:03:46;;;;;;;16.60;11.25;;;;;;;;;;4970268;28;20414;-75
2021/06/28 00:06:13;;;;;;;18.90;10.30;;;;;;;;;;4985244;28;20098;-74
2021/06/28 00:08:39;;;;;;;21.83;11.55;;;;;;;;;;4970755;28;20074;-74
2021/06/28 00:11:06;;;;;;;19.15;10.68;;;;;;;;;;4968808;28;20059;-76
2021/06/28 00:13:32;;;;;;;16.75;10.95;;;;;;;;;;4970410;28;20064;-75
2021/06/28 00:15:58;;;;;;;18.90;11.20;;;;;;;;;;4970846;28;20030;-74
2021/06/28 00:18:24;;;;;;;18.00;11.35;;;;;;;;;;4968969;28;20081;-75
2021/06/28 00:20:50;;;;;;;17.08;11.43;;;;;;;;;;4970041;28;20031;-75
2021/06/28 00:23:16;;;;;;;19.30;11.27;;;;;;;;;;4969092;28;20117;-76
2021/06/28 00:25:42;;;;;;;15.35;10.15;;;;;;;;;;4970411;28;20062;-76
2021/06/28 00:28:08;;;;;;;16.60;10.80;;;;;;;;;;4969966;28;20065;-75
2021/06/28 00:30:39;;;;;;;19.65;11.20;;;;;;;;;;5001539;28;20027;-74
2021/06/28 00:33:06;;;;;;;18.10;11.75;;;;;;;;;;4968653;28;20043;-74
2021/06/28 00:35:32;;;;;;;13.32;10.00;;;;;;;;;;4968748;28;20174;-74
2021/06/28 00:37:57;;;;;;;19.23;10.73;;;;;;;;;;4968686;28;20048;-75
2021/06/28 00:40:24;;;;;;;17.92;10.93;;;;;;;;;;4984880;28;20383;-74
2021/06/28 00:42:49;;;;;;;17.63;11.00;;;;;;;;;;4969810;28;20102;-75
2021/06/28 00:45:27;;;;;;;20.48;11.27;;;;;;;;;;4970166;28;20411;-74
2021/06/28 00:47:55;;;;;;;15.63;11.40;;;;;;;;;;4969932;28;20027;-74
2021/06/28 00:50:22;;;;;;;20.13;11.20;;;;;;;;;;4968878;28;20078;-75
2021/06/28 00:52:53;;;;;;;19.15;10.68;;;;;;;;;;4970139;28;20057;-74
2021/06/28 00:55:18;;;;;;;18.35;11.30;;;;;;;;;;4968432;28;20054;-75
2021/06/28 00:57:44;;;;;;;22.23;12.25;;;;;;;;;;4985242;28;20122;-74
2021/06/28 01:00:11;;;;;;;19.45;12.57;;;;;;;;;;4973064;28;20031;-75
2021/06/28 01:02:37;;;;;;;22.23;11.05;;;;;;;;;;4971987;28;20437;-75
2021/06/28 01:05:06;;;;;;;14.77;10.75;;;;;;;;;;4973245;28;20097;-75
2021/06/28 01:07:32;;;;;;;19.85;11.30;;;;;;;;;;4973345;28;20027;-75
2021/06/28 01:09:57;;;;;;;16.10;11.00;;;;;;;;;;4973189;28;20149;-74
2021/06/28 01:12:23;;;;;;;18.88;10.18;;;;;;;;;;4973384;28;20379;-75
2021/06/28 01:14:50;;;;;;;21.58;12.07;;;;;;;;;;4973057;28;20088;-75
2021/06/28 01:17:16;;;;;;;17.20;12.82;;;;;;;;;;4973144;28;20022;-74
2021/06/28 01:19:49;;;;;;;20.58;12.60;;;;;;;;;;4971525;28;20031;-75
2021/06/28 01:22:18;;;;;;;18.30;11.35;;;;;;;;;;4971693;28;20019;-75
2021/06/28 01:24:44;;;;;;;17.35;10.65;;;;;;;;;;4971778;28;20116;-73
2021/06/28 01:27:09;;;;;;;22.50;11.05;;;;;;;;;;4987662;28;20495;-75
2021/06/28 01:29:35;;;;;;;14.93;10.98;;;;;;;;;;4973116;28;20058;-74
2021/06/28 01:32:00;;;;;;;16.67;11.43;;;;;;;;;;4972968;28;20105;-75
2021/06/28 01:34:26;;;;;;;15.40;10.80;;;;;;;;;;4971918;28;20054;-74
2021/06/28 01:36:51;;;;;;;20.05;12.52;;;;;;;;;;5003798;28;20019;-75
2021/06/28 01:39:18;;;;;;;18.73;11.10;;;;;;;;;;4971269;28;20058;-75
2021/06/28 01:41:44;;;;;;;20.17;12.13;;;;;;;;;;4971278;28;20073;-75
2021/06/28 01:44:09;;;;;;;18.35;11.93;;;;;;;;;;4972467;28;20034;-75
2021/06/28 01:46:35;;;;;;;17.80;11.40;;;;;;;;;;4987490;28;20038;-75
2021/06/28 01:49:00;;;;;;;15.45;11.95;;;;;;;;;;4972436;28;20026;-75
2021/06/28 01:51:27;;;;;;;20.38;11.50;;;;;;;;;;4972608;28;20034;-74
2021/06/28 01:53:53;;;;;;;18.02;11.70;;;;;;;;;;4972390;28;20441;-75
2021/06/28 01:56:18;;;;;;;19.92;12.18;;;;;;;;;;4970683;28;20055;-75
2021/06/28 01:58:44;;;;;;;20.40;12.48;;;;;;;;;;4970974;28;20035;-75
2021/06/28 02:01:09;;;;;;;21.10;11.98;;;;;;;;;;4972043;28;20026;-75
2021/06/28 02:03:38;;;;;;;18.33;11.30;;;;;;;;;;4971001;28;20065;-75
2021/06/28 02:06:05;;;;;;;16.38;11.60;;;;;;;;;;4972388;28;20072;-75
2021/06/28 02:08:34;;;;;;;14.70;11.13;;;;;;;;;;5003282;28;20023;-75
2021/06/28 02:11:03;;;;;;;17.95;11.07;;;;;;;;;;4971949;28;20052;-75
2021/06/28 02:13:38;;;;;;;17.90;11.10;;;;;;;;;;4986975;28;20030;-75
2021/06/28 02:16:04;;;;;;;16.73;11.43;;;;;;;;;;4986726;28;20420;-75
2021/06/28 02:18:30;;;;;;;19.23;11.82;;;;;;;;;;4986983;28;20121;-75
2021/06/28 02:20:59;;;;;;;19.17;12.63;;;;;;;;;;4971720;28;20510;-75
2021/06/28 02:23:34;;;;;;;18.08;11.27;;;;;;;;;;4971952;28;20034;-76
2021/06/28 02:26:06;;;;;;;16.58;11.38;;;;;;;;;;4971762;28;20062;-75
2021/06/28 02:28:36;;;;;;;19.02;11.50;;;;;;;;;;4972205;28;20018;-75
2021/06/28 02:31:03;;;;;;;19.73;12.02;;;;;;;;;;4971711;28;20355;-75
2021/06/28 02:33:31;;;;;;;18.95;11.88;;;;;;;;;;4972118;28;20023;-75
2021/06/28 02:35:57;;;;;;;24.25;12.10;;;;;;;;;;4970353;28;20019;-75
2021/06/28 02:38:22;;;;;;;16.50;10.65;;;;;;;;;;4971836;28;20031;-76
2021/06/28 02:40:49;;;;;;;17.48;11.45;;;;;;;;;;4970171;28;20483;-75
2021/06/28 02:43:15;;;;;;;20.52;11.45;;;;;;;;;;4969956;28;20023;-75
2021/06/28 02:45:42;;;;;;;15.55;11.20;;;;;;;;;;4971652;28;20102;-75
2021/06/28 02:48:08;;;;;;;18.58;11.98;;;;;;;;;;4970216;28;20038;-75
2021/06/28 02:50:33;;;;;;;19.83;11.45;;;;;;;;;;4971541;28;20031;-75
2021/06/28 02:52:59;;;;;;;20.65;13.50;;;;;;;;;;4971168;28;20101;-75
2021/06/28 02:55:24;;;;;;;17.25;10.77;;;;;;;;;;4971194;28;20495;-75
2021/06/28 02:57:50;;;;;;;24.08;12.23;;;;;;;;;;4971593;28;20525;-73
2021/06/28 03:00:17;;;;;;;17.65;11.77;;;;;;;;;;4970212;28;20513;-75
2021/06/28 03:02:43;;;;;;;17.90;11.80;;;;;;;;;;4971604;28;20037;-75
2021/06/28 03:05:11;;;;;;;16.63;11.05;;;;;;;;;;4971192;28;20030;-75
2021/06/28 03:07:37;;;;;;;18.50;12.63;;;;;;;;;;4971282;28;20089;-75
2021/06/28 03:10:12;;;;;;;23.67;12.02;;;;;;;;;;4985662;28;20027;-74
2021/06/28 03:12:38;;;;;;;18.20;11.38;;;;;;;;;;4969660;28;20058;-74
2021/06/28 03:15:10;;;;;;;27.90;12.15;;;;;;;;;;4969188;28;20053;-74
2021/06/28 03:17:37;;;;;;;20.48;12.13;;;;;;;;;;4985693;28;20472;-75
2021/06/28 03:20:05;;;;;;;24.23;12.38;;;;;;;;;;4970902;28;20026;-76
2021/06/28 03:22:31;;;;;;;25.08;13.10;;;;;;;;;;4969359;28;20038;-76
2021/06/28 03:24:56;;;;;;;18.33;11.48;;;;;;;;;;4985533;28;20426;-75
2021/06/28 03:27:23;;;;;;;19.30;11.85;;;;;;;;;;4969562;28;20031;-75
2021/06/28 03:29:48;;;;;;;19.48;11.35;;;;;;;;;;4985758;28;20058;-74
2021/06/28 03:32:14;;;;;;;18.73;11.40;;;;;;;;;;4970684;28;20065;-75
2021/06/28 03:34:40;;;;;;;21.00;12.15;;;;;;;;;;4970860;28;20035;-75
2021/06/28 03:37:06;;;;;;;21.13;12.18;;;;;;;;;;4970618;28;20035;-75
2021/06/28 03:39:32;;;;;;;21.65;11.95;;;;;;;;;;4970573;28;20300;-74
2021/06/28 03:41:58;;;;;;;20.85;12.35;;;;;;;;;;4968976;28;20088;-75
2021/06/28 03:44:24;;;;;;;19.67;12.18;;;;;;;;;;4970552;28;20110;-75
2021/06/28 03:46:49;;;;;;;17.63;11.07;;;;;;;;;;4970512;28;20027;-75
2021/06/28 03:49:15;;;;;;;18.05;11.40;;;;;;;;;;4968665;28;20045;-74
2021/06/28 03:51:41;;;;;;;17.10;11.35;;;;;;;;;;4985442;28;20096;-75
2021/06/28 03:54:07;;;;;;;19.75;12.18;;;;;;;;;;4970253;28;20422;-75
2021/06/28 03:56:33;;;;;;;27.98;11.93;;;;;;;;;;4969352;28;20026;-76
2021/06/28 03:58:59;;;;;;;20.02;12.05;;;;;;;;;;4970237;28;20465;-75
2021/06/28 04:01:24;;;;;;;28.88;13.32;;;;;;;;;;4969470;28;20031;-76
2021/06/28 04:03:51;;;;;;;17.95;12.93;;;;;;;;;;4969034;28;20038;-75
2021/06/28 04:06:18;;;;;;;18.45;11.48;;;;;;;;;;4970478;28;20122;-75
2021/06/28 04:08:43;;;;;;;19.85;12.65;;;;;;;;;;4970721;28;20472;-74
2021/06/28 04:11:09;;;;;;;26.58;13.68;;;;;;;;;;4968679;28;20029;-74
2021/06/28 04:13:34;;;;;;;17.35;11.85;;;;;;;;;;4969210;28;20034;-75
2021/06/28 04:16:00;;;;;;;25.60;12.93;;;;;;;;;;4970080;28;20463;-75
2021/06/28 04:18:26;;;;;;;21.15;12.43;;;;;;;;;;4970259;28;20106;-75
2021/06/28 04:20:51;;;;;;;19.52;12.18;;;;;;;;;;4969009;28;20393;-74
2021/06/28 04:23:18;;;;;;;17.88;12.32;;;;;;;;;;4970126;28;20065;-75
2021/06/28 04:25:43;;;;;;;28.25;14.20;;;;;;;;;;4968795;28;20148;-76
2021/06/28 04:28:10;;;;;;;17.67;11.75;;;;;;;;;;4970115;28;20456;-75
2021/06/28 04:30:36;;;;;;;21.50;12.75;;;;;;;;;;4970702;28;20052;-76
2021/06/28 04:33:02;;;;;;;23.35;12.68;;;;;;;;;;4969621;28;20495;-74
2021/06/28 04:35:28;;;;;;;20.30;12.10;;;;;;;;;;4973974;28;20026;-75
2021/06/28 04:37:56;;;;;;;21.17;12.18;;;;;;;;;;4974070;28;20030;-74
2021/06/28 04:40:27;;;;;;;17.33;12.00;;;;;;;;;;4974359;28;20048;-75
2021/06/28 04:42:54;;;;;;;17.27;11.63;;;;;;;;;;4974167;28;20411;-75
2021/06/28 04:45:21;;;;;;;19.73;12.98;;;;;;;;;;4973471;28;20518;-76
2021/06/28 04:47:48;;;;;;;19.90;12.75;;;;;;;;;;4973683;28;20030;-75
2021/06/28 04:50:16;;;;;;;19.60;13.60;;;;;;;;;;4973693;28;20026;-76
2021/06/28 04:52:42;;;;;;;21.08;12.93;;;;;;;;;;5004763;28;20038;-76
2021/06/28 04:55:13;;;;;;;17.95;11.93;;;;;;;;;;4972106;28;20525;-76
2021/06/28 04:57:40;;;;;;;17.92;11.98;;;;;;;;;;5004214;28;20030;-76
2021/06/28 05:00:08;;;;;;;23.50;13.32;;;;;;;;;;4973164;28;20097;-76
2021/06/28 05:02:34;;;;;;;16.02;11.80;;;;;;;;;;4972179;28;20065;-75
2021/06/28 05:04:59;;;;;;;21.38;12.95;;;;;;;;;;5004744;28;20066;-75
2021/06/28 05:07:25;;;;;;;21.13;12.52;;;;;;;;;;4972081;28;20038;-74
2021/06/28 05:09:50;;;;;;;18.00;12.13;;;;;;;;;;4973282;28;20081;-74
2021/06/28 05:12:16;;;;;;;23.90;15.15;;;;;;;;;;4972374;28;20038;-77
2021/06/28 05:14:44;;;;;;;19.75;12.45;;;;;;;;;;4972046;28;20157;-76
2021/06/28 05:17:11;;;;;;;20.27;13.50;;;;;;;;;;4971620;28;20089;-78
2021/06/28 05:19:37;;;;;;;20.35;11.48;;;;;;;;;;4962977;28;20069;-78
2021/06/28 05:22:03;;;;;;;22.17;14.20;;;;;;;;;;4967736;28;20035;-75
2021/06/28 05:24:30;;;;;;;19.73;13.57;;;;;;;;;;5009397;28;20051;-77
2021/06/28 05:26:55;;;;;;;22.10;12.75;;;;;;;;;;4964506;28;20034;-75
2021/06/28 05:29:21;;;;;;;23.45;12.98;;;;;;;;;;4964614;28;20089;-75
2021/06/28 05:31:46;;;;;;;28.35;15.40;;;;;;;;;;4971209;28;20031;-77
2021/06/28 05:34:12;;;;;;;18.63;13.05;;;;;;;;;;4968971;28;20050;-77
2021/06/28 05:36:37;;;;;;;22.20;13.15;;;;;;;;;;4960718;28;20042;-77
2021/06/28 05:39:04;;;;;;;19.45;13.63;;;;;;;;;;4961207;28;20038;-77
2021/06/28 05:41:30;;;;;;;20.25;13.38;;;;;;;;;;4965642;28;20031;-75
2021/06/28 05:43:56;;;;;;;19.02;12.68;;;;;;;;;;4971600;28;20396;-77
2021/06/28 05:46:22;;;;;;;25.60;13.68;;;;;;;;;;4973661;28;20026;-76
2021/06/28 05:48:48;;;;;;;22.50;13.27;;;;;;;;;;4973279;28;20034;-77
2021/06/28 05:51:14;;;;;;;22.98;13.60;;;;;;;;;;4962949;28;20034;-76
2021/06/28 05:53:43;;;;;;;23.35;13.85;;;;;;;;;;4971426;28;20027;-77
2021/06/28 05:56:09;;;;;;;25.63;14.57;;;;;;;;;;4969786;28;20086;-78
2021/06/28 05:58:34;;;;;;;23.00;15.32;;;;;;;;;;4970819;28;20034;-77
2021/06/28 06:01:00;;;;;;;22.38;13.85;;;;;;;;;;4971986;28;20123;-76
2021/06/28 06:03:26;;;;;;;22.35;12.32;;;;;;;;;;4971619;28;20142;-77
2021/06/28 06:05:55;;;;;;;28.92;15.45;;;;;;;;;;4971054;28;20035;-77
2021/06/28 06:08:24;;;;;;;25.20;15.13;;;;;;;;;;4970464;28;20154;-78
2021/06/28 06:10:55;;;;;;;34.10;18.77;;;;;;;;;;4970754;28;20062;-76
2021/06/28 06:13:20;;;;;;;31.38;18.13;;;;;;;;;;4973501;28;20030;-75
2021/06/28 06:15:46;;;;;;;29.50;16.48;;;;;;;;;;4964086;28;20255;-77
2021/06/28 06:18:13;;;;;;;31.95;17.75;;;;;;;;;;4966573;28;20598;-75
2021/06/28 06:20:39;;;;;;;27.35;17.20;;;;;;;;;;4967438;28;20494;-76
2021/06/28 06:23:05;;;;;;;25.70;15.88;;;;;;;;;;4965230;28;20035;-78
2021/06/28 06:25:31;;;;;;;27.02;16.65;;;;;;;;;;4966019;28;20030;-77
2021/06/28 06:27:56;;;;;;;28.52;16.65;;;;;;;;;;4966632;28;20050;-77
2021/06/28 06:30:22;;;;;;;36.25;17.35;;;;;;;;;;4969416;28;20035;-78
2021/06/28 06:32:49;;;;;;;24.92;15.25;;;;;;;;;;4965746;28;20182;-76
2021/06/28 06:35:15;;;;;;;27.83;15.43;;;;;;;;;;4966686;28;20042;-75
2021/06/28 06:37:41;;;;;;;25.98;17.55;;;;;;;;;;4967945;28;20027;-76
2021/06/28 06:40:08;;;;;;;29.40;15.80;;;;;;;;;;4965824;28;20027;-76
2021/06/28 06:42:34;;;;;;;26.08;15.43;;;;;;;;;;4963902;28;20038;-76
2021/06/28 06:45:00;;;;;;;29.52;15.75;;;;;;;;;;4968185;28;20495;-77
2021/06/28 06:47:25;;;;;;;24.17;14.90;;;;;;;;;;4966214;28;20122;-77
2021/06/28 06:49:51;;;;;;;34.90;16.42;;;;;;;;;;4966818;28;20062;-75
2021/06/28 06:52:17;;;;;;;32.20;17.08;;;;;;;;;;4964184;28;20038;-76
2021/06/28 06:54:43;;;;;;;26.40;15.10;;;;;;;;;;4964390;28;20054;-76
2021/06/28 06:57:10;;;;;;;27.13;16.63;;;;;;;;;;4966435;28;20387;-76
2021/06/28 06:59:38;;;;;;;59.20;19.70;;;;;;;;;;4964869;28;20051;-78
2021/06/28 07:02:05;;;;;;;28.05;16.15;;;;;;;;;;4964177;28;20181;-77
2021/06/28 07:04:33;;;;;;;24.52;16.35;;;;;;;;;;4969070;28;20030;-77
2021/06/28 07:07:00;;;;;;;31.75;17.25;;;;;;;;;;4964754;28;20690;-76
2021/06/28 07:09:29;;;;;;;33.92;15.93;;;;;;;;;;4962029;28;20066;-76
2021/06/28 07:11:56;;;;;;;29.63;16.63;;;;;;;;;;4966507;28;20580;-77
2021/06/28 07:14:22;;;;;;;24.95;14.38;;;;;;;;;;4959699;28;20149;-76
2021/06/28 07:16:50;;;;;;;21.30;12.85;;;;;;;;;;4965700;28;20045;-76
2021/06/28 07:19:15;;;;;;;24.95;13.48;;;;;;;;;;4964712;28;20134;-76
2021/06/28 07:21:41;;;;;;;21.98;13.57;;;;;;;;;;4965602;28;20127;-75
2021/06/28 07:24:08;;;;;;;21.63;13.02;;;;;;;;;;4965514;28;20034;-76
2021/06/28 07:26:34;;;;;;;24.30;12.13;;;;;;;;;;4962841;28;20030;-76
2021/06/28 07:29:00;;;;;;;29.55;14.40;;;;;;;;;;4967481;28;20368;-76
2021/06/28 07:31:26;;;;;;;23.17;12.73;;;;;;;;;;4964362;28;20073;-76
2021/06/28 07:33:52;;;;;;;19.65;12.02;;;;;;;;;;4963096;28;20042;-78
2021/06/28 07:36:17;;;;;;;25.67;17.05;;;;;;;;;;4966817;28;20042;-75
2021/06/28 07:38:43;;;;;;;23.98;12.40;;;;;;;;;;4966728;28;21489;-76
2021/06/28 07:41:09;;;;;;;18.52;12.50;;;;;;;;;;4961157;28;20447;-77
2021/06/28 07:43:36;;;;;;;20.45;12.38;;;;;;;;;;4966570;28;20035;-75
2021/06/28 07:46:03;;;;;;;17.50;11.93;;;;;;;;;;4965296;28;20031;-77
2021/06/28 07:48:28;;;;;;;16.30;10.85;;;;;;;;;;4966576;28;20022;-77
2021/06/28 07:50:54;;;;;;;26.13;12.70;;;;;;;;;;4965620;28;20258;-77
2021/06/28 07:53:20;;;;;;;23.00;11.90;;;;;;;;;;4966486;28;20073;-77
2021/06/28 07:55:45;;;;;;;18.95;12.32;;;;;;;;;;4966503;28;20146;-76
2021/06/28 07:58:12;;;;;;;16.13;10.75;;;;;;;;;;4965690;28;20035;-75
2021/06/28 08:00:38;;;;;;;21.52;14.20;;;;;;;;;;4966747;28;20106;-77
2021/06/28 08:03:05;;;;;;;19.70;11.30;;;;;;;;;;4951736;28;20066;-77
2021/06/28 08:05:31;;;;;;;17.40;11.20;;;;;;;;;;4965054;28;20121;-76
2021/06/28 08:07:56;;;;;;;19.65;12.43;;;;;;;;;;4966984;28;20916;-77
2021/06/28 08:10:22;;;;;;;17.75;10.80;;;;;;;;;;4973421;28;20042;-76
2021/06/28 08:12:49;;;;;;;14.70;10.55;;;;;;;;;;4968764;28;20035;-76
2021/06/28 08:15:18;;;;;;;14.70;9.43;;;;;;;;;;4968038;28;20030;-77
2021/06/28 08:17:46;;;;;;;18.95;11.10;;;;;;;;;;5000118;28;20996;-76
2021/06/28 08:20:12;;;;;;;20.13;12.82;;;;;;;;;;4968452;28;20483;-76
2021/06/28 08:22:38;;;;;;;16.95;10.45;;;;;;;;;;4966503;28;20077;-76
2021/06/28 08:25:09;;;;;;;16.38;12.10;;;;;;;;;;4971384;28;20039;-74
2021/06/28 08:27:35;;;;;;;19.75;11.68;;;;;;;;;;4966817;28;20446;-74
2021/06/28 08:30:02;;;;;;;16.20;11.85;;;;;;;;;;4966899;28;20019;-73
2021/06/28 08:32:27;;;;;;;15.13;10.95;;;;;;;;;;4964727;28;20030;-74
2021/06/28 08:34:55;;;;;;;29.38;11.68;;;;;;;;;;4968490;28;20042;-74
2021/06/28 08:37:21;;;;;;;28.77;12.75;;;;;;;;;;4968015;28;20110;-74
2021/06/28 08:39:47;;;;;;;17.08;10.57;;;;;;;;;;4966542;28;20416;-74
2021/06/28 08:42:14;;;;;;;20.55;11.88;;;;;;;;;;4965672;28;20037;-74
2021/06/28 08:44:43;;;;;;;22.85;10.80;;;;;;;;;;4966867;28;20129;-73
2021/06/28 08:47:10;;;;;;;15.25;10.20;;;;;;;;;;5000956;28;20030;-74
2021/06/28 08:49:37;;;;;;;17.88;10.30;;;;;;;;;;4957306;28;20042;-74
2021/06/28 08:52:04;;;;;;;16.23;9.63;;;;;;;;;;4948632;28;20164;-74
2021/06/28 08:54:31;;;;;;;20.30;10.48;;;;;;;;;;4943450;28;20454;-74
2021/06/28 08:57:02;;;;;;;20.45;10.60;;;;;;;;;;4966807;28;20121;-74
2021/06/28 08:59:27;;;;;;;16.52;9.90;;;;;;;;;;4996970;28;20070;-75
2021/06/28 09:01:53;;;;;;;19.13;9.18;;;;;;;;;;4964310;28;20209;-73
2021/06/28 09:04:19;;;;;;;17.85;10.80;;;;;;;;;;4965801;28;20093;-73
2021/06/28 09:06:45;;;;;;;22.92;15.45;;;;;;;;;;4966350;28;20134;-72
2021/06/28 09:09:16;;;;;;;18.58;12.07;;;;;;;;;;4964698;28;20034;-73
2021/06/28 09:11:44;;;;;;;20.83;10.18;;;;;;;;;;4926281;28;20222;-74
2021/06/28 09:14:11;;;;;;;12.30;10.27;;;;;;;;;;4967006;28;20022;-74
2021/06/28 09:16:40;;;;;;;15.20;10.05;;;;;;;;;;4965757;28;20478;-74
2021/06/28 09:19:08;;;;;;;19.15;9.55;;;;;;;;;;4996211;28;20050;-75
2021/06/28 09:21:42;;;;;;;17.88;10.55;;;;;;;;;;4964086;28;20065;-74
2021/06/28 09:24:32;;;;;;;16.58;9.25;;;;;;;;;;4968221;28;20031;-74
2021/06/28 09:27:14;;;;;;;15.90;9.23;;;;;;;;;;5000171;28;20038;-74
2021/06/28 09:29:59;;;;;;;12.88;8.82;;;;;;;;;;4965823;28;20049;-74
2021/06/28 09:32:26;;;;;;;13.77;9.35;;;;;;;;;;4964733;28;20526;-73
2021/06/28 09:34:55;;;;;;;14.75;10.02;;;;;;;;;;4963882;28;20081;-73
2021/06/28 09:37:26;;;;;;;14.93;9.18;;;;;;;;;;4963337;28;20046;-73
2021/06/28 09:39:58;;;;;;;18.70;9.55;;;;;;;;;;4981575;28;20045;-74
2021/06/28 09:42:27;;;;;;;24.52;11.20;;;;;;;;;;4963378;28;20173;-74
2021/06/28 09:44:55;;;;;;;20.08;10.57;;;;;;;;;;4965749;28;20066;-75
2021/06/28 09:47:26;;;;;;;18.95;11.02;;;;;;;;;;4965229;28;20053;-75
2021/06/28 09:50:18;;;;;;;12.98;8.23;;;;;;;;;;4960313;28;20097;-75
2021/06/28 09:52:56;;;;;;;14.63;9.63;;;;;;;;;;4963860;28;20050;-75
2021/06/28 09:55:31;;;;;;;16.77;9.55;;;;;;;;;;4964038;28;20528;-75
2021/06/28 09:58:26;;;;;;;12.05;8.40;;;;;;;;;;4964490;28;20421;-75
2021/06/28 10:01:00;;;;;;;11.75;8.13;;;;;;;;;;4963140;28;20440;-77
2021/06/28 10:03:36;;;;;;;12.55;8.57;;;;;;;;;;4962560;28;20031;-76
2021/06/28 10:06:11;;;;;;;16.38;10.93;;;;;;;;;;4995654;28;20030;-76
2021/06/28 10:08:45;;;;;;;23.88;10.45;;;;;;;;;;4968356;28;20061;-77
2021/06/28 10:11:26;;;;;;;18.95;9.85;;;;;;;;;;4993192;28;20414;-76
2021/06/28 10:14:01;;;;;;;13.63;8.70;;;;;;;;;;4968190;28;20090;-75
2021/06/28 10:16:30;;;;;;;16.25;8.43;;;;;;;;;;4998346;28;21166;-75
2021/06/28 10:18:56;;;;;;;12.20;8.82;;;;;;;;;;4997160;28;20045;-74
2021/06/28 10:21:23;;;;;;;9.45;8.32;;;;;;;;;;4977707;28;20517;-76
2021/06/28 10:23:49;;;;;;;12.38;8.30;;;;;;;;;;4964328;28;20054;-75
2021/06/28 10:26:15;;;;;;;11.18;8.45;;;;;;;;;;4964807;28;20497;-75
2021/06/28 10:28:41;;;;;;;13.90;7.63;;;;;;;;;;4967619;28;20158;-76
2021/06/28 10:31:10;;;;;;;8.35;7.43;;;;;;;;;;4965273;28;20034;-79
2021/06/28 10:33:37;;;;;;;13.85;8.80;;;;;;;;;;4968258;28;20062;-77
2021/06/28 10:36:07;;;;;;;9.98;7.88;;;;;;;;;;4969458;28;20030;-76
2021/06/28 10:38:59;;;;;;;10.57;8.93;;;;;;;;;;4968065;28;20026;-77
2021/06/28 10:41:35;;;;;;;14.40;8.57;;;;;;;;;;4962866;28;20475;-77
2021/06/28 10:44:01;;;;;;;13.60;9.13;;;;;;;;;;4982919;28;20062;-76
2021/06/28 10:46:32;;;;;;;12.80;9.05;;;;;;;;;;4965197;28;20432;-78
2021/06/28 10:48:58;;;;;;;61.40;13.95;;;;;;;;;;4966627;28;20117;-77
2021/06/28 10:51:43;;;;;;;22.63;8.68;;;;;;;;;;4963473;28;20031;-74
2021/06/28 10:54:11;;;;;;;11.40;8.15;;;;;;;;;;4963509;28;20049;-75
2021/06/28 10:56:37;;;;;;;14.77;8.45;;;;;;;;;;4966103;28;20122;-76
2021/06/28 10:59:05;;;;;;;13.75;9.20;;;;;;;;;;4966032;28;20037;-74
2021/06/28 11:01:41;;;;;;;13.52;7.40;;;;;;;;;;4962532;28;20023;-75
2021/06/28 11:04:15;;;;;;;12.68;7.88;;;;;;;;;;4966091;28;20093;-76
2021/06/28 11:06:59;;;;;;;9.27;7.65;;;;;;;;;;4965124;28;20031;-75
2021/06/28 11:09:36;;;;;;;10.52;8.77;;;;;;;;;;4964304;28;20027;-76
2021/06/28 11:12:18;;;;;;;11.25;8.23;;;;;;;;;;4962910;28;20069;-76
2021/06/28 11:15:24;;;;;;;13.48;9.18;;;;;;;;;;4974140;28;20050;-77
2021/06/28 11:17:51;;;;;;;17.85;10.07;;;;;;;;;;4960353;28;20046;-73
2021/06/28 11:20:37;;;;;;;13.77;9.48;;;;;;;;;;4972971;28;20030;-74
2021/06/28 11:23:17;;;;;;;18.77;8.93;;;;;;;;;;4960651;28;20034;-74
2021/06/28 11:25:46;;;;;;;13.65;8.68;;;;;;;;;;4964439;28;20261;-75
2021/06/28 11:28:19;;;;;;;13.98;8.52;;;;;;;;;;4963499;28;20079;-76
2021/06/28 11:30:52;;;;;;;18.50;8.38;;;;;;;;;;4978218;28;20433;-75
2021/06/28 11:33:32;;;;;;;10.98;8.25;;;;;;;;;;4959134;28;20043;-77
2021/06/28 11:35:58;;;;;;;19.23;8.55;;;;;;;;;;4960604;28;20031;-75
2021/06/28 11:38:37;;;;;;;11.07;8.27;;;;;;;;;;4968535;28;20411;-77
2021/06/28 11:41:15;;;;;;;8.55;7.65;;;;;;;;;;4979311;28;20481;-76
2021/06/28 11:43:48;;;;;;;9.65;8.23;;;;;;;;;;4969860;28;20037;-75
2021/06/28 11:46:16;;;;;;;19.10;8.73;;;;;;;;;;4970015;28;20022;-76
2021/06/28 11:49:05;;;;;;;23.23;8.40;;;;;;;;;;4998618;28;20037;-76
2021/06/28 11:51:36;;;;;;;19.90;9.30;;;;;;;;;;4962641;28;20133;-75
2021/06/28 11:54:03;;;;;;;15.70;8.07;;;;;;;;;;4982408;28;20041;-76
2021/06/28 11:56:54;;;;;;;14.70;7.35;;;;;;;;;;4983104;28;20149;-76
2021/06/28 11:59:23;;;;;;;16.13;8.75;;;;;;;;;;4964679;28;20169;-74
2021/06/28 12:01:52;;;;;;;10.32;7.78;;;;;;;;;;4999703;28;20085;-74
2021/06/28 12:04:30;;;;;;;16.23;7.82;;;;;;;;;;4968287;28;20047;-75
2021/06/28 12:06:57;;;;;;;16.15;7.78;;;;;;;;;;4980858;28;20030;-77
2021/06/28 12:09:23;;;;;;;18.52;8.98;;;;;;;;;;4968748;28;20027;-77
2021/06/28 12:11:50;;;;;;;14.20;8.30;;;;;;;;;;5000156;28;20375;-78
2021/06/28 12:14:43;;;;;;;11.05;8.25;;;;;;;;;;4982220;28;20412;-78
2021/06/28 12:17:11;;;;;;;13.57;8.07;;;;;;;;;;4982692;28;20060;-78
2021/06/28 12:19:39;;;;;;;11.90;7.60;;;;;;;;;;4982386;28;20033;-78
2021/06/28 12:22:18;;;;;;;20.38;8.98;;;;;;;;;;4967717;28;20675;-77
2021/06/28 12:24:47;;;;;;;11.13;7.20;;;;;;;;;;4999174;28;20463;-78
2021/06/28 12:27:15;;;;;;;10.48;8.20;;;;;;;;;;4967328;28;20031;-77
2021/06/28 12:29:42;;;;;;;8.35;7.50;;;;;;;;;;4969662;28;20019;-77
2021/06/28 12:32:16;;;;;;;11.48;7.82;;;;;;;;;;4985043;28;20450;-78
2021/06/28 12:34:48;;;;;;;10.88;8.35;;;;;;;;;;5000460;28;20039;-76
2021/06/28 12:37:20;;;;;;;11.50;7.72;;;;;;;;;;4999786;28;20136;-78
2021/06/28 12:39:46;;;;;;;12.88;7.82;;;;;;;;;;4967563;28;20508;-78
2021/06/28 12:42:16;;;;;;;13.25;8.10;;;;;;;;;;4969388;28;20038;-74
2021/06/28 12:44:42;;;;;;;16.20;12.40;;;;;;;;;;5001554;28;20173;-77
2021/06/28 12:47:10;;;;;;;16.77;9.52;;;;;;;;;;4972689;28;20033;-76
2021/06/28 12:49:36;;;;;;;10.77;8.55;;;;;;;;;;4968676;28;20146;-77
2021/06/28 12:52:23;;;;;;;11.20;8.20;;;;;;;;;;4967615;28;20034;-79
2021/06/28 12:55:13;;;;;;;15.15;9.13;;;;;;;;;;4968909;28;20381;-78
2021/06/28 12:57:44;;;;;;;12.38;8.65;;;;;;;;;;4971222;28;20447;-77
2021/06/28 13:00:16;;;;;;;8.55;7.75;;;;;;;;;;4987351;28;20130;-78
2021/06/28 13:02:52;;;;;;;8.80;7.88;;;;;;;;;;4985941;28;20513;-77
2021/06/28 13:05:27;;;;;;;11.25;8.07;;;;;;;;;;4970265;28;20026;-76
2021/06/28 13:08:10;;;;;;;12.18;8.68;;;;;;;;;;5006830;28;20348;-78
2021/06/28 13:10:36;;;;;;;12.23;8.65;;;;;;;;;;4968885;28;20404;-78
2021/06/28 13:13:29;;;;;;;9.60;8.60;;;;;;;;;;4969726;28;20075;-78
2021/06/28 13:16:15;;;;;;;9.70;8.00;;;;;;;;;;4969275;28;20454;-78
2021/06/28 13:19:00;;;;;;;9.73;7.60;;;;;;;;;;4965171;28;20034;-75
2021/06/28 13:21:29;;;;;;;9.63;7.68;;;;;;;;;;4969898;28;20030;-78
2021/06/28 13:23:55;;;;;;;8.55;7.07;;;;;;;;;;4970818;28;20491;-77
2021/06/28 13:26:32;;;;;;;8.13;7.32;;;;;;;;;;4970833;28;20031;-76
2021/06/28 13:29:13;;;;;;;11.20;7.75;;;;;;;;;;4987693;28;20404;-77
2021/06/28 13:31:49;;;;;;;13.18;8.20;;;;;;;;;;4971181;28;20014;-78
2021/06/28 13:34:14;;;;;;;9.93;7.88;;;;;;;;;;4986570;28;20060;-79
2021/06/28 13:36:58;;;;;;;11.13;6.80;;;;;;;;;;5003038;28;20151;-79
2021/06/28 13:39:56;;;;;;;10.63;7.80;;;;;;;;;;4965235;28;20054;-77
2021/06/28 13:42:49;;;;;;;9.65;8.63;;;;;;;;;;4970117;28;20030;-79
2021/06/28 13:45:27;;;;;;;13.13;8.95;;;;;;;;;;4970229;28;20041;-78
2021/06/28 13:48:00;;;;;;;13.98;6.63;;;;;;;;;;4969486;28;20035;-76
2021/06/28 13:50:40;;;;;;;20.92;8.05;;;;;;;;;;4970510;28;20434;-78
2021/06/28 13:53:13;;;;;;;;;;;;;;;;;;4971176;28;20043;-78
2021/06/28 13:55:43;;;;;;;10.02;7.60;;;;;;;;;;4971262;28;19965;-76
2021/06/28 13:58:11;;;;;;;11.10;8.00;;;;;;;;;;5001225;28;20085;-78
2021/06/28 14:00:43;;;;;;;8.10;6.72;;;;;;;;;;4971313;28;20029;-78
2021/06/28 14:03:12;;;;;;;8.70;7.28;;;;;;;;;;4969870;28;20045;-76
2021/06/28 14:05:38;;;;;;;12.75;7.70;;;;;;;;;;4967641;28;20038;-75
2021/06/28 14:08:07;;;;;;;10.07;6.95;;;;;;;;;;4975543;28;20133;-77
2021/06/28 14:10:33;;;;;;;10.38;6.45;;;;;;;;;;4977219;28;20085;-78
2021/06/28 14:13:00;;;;;;;10.52;7.22;;;;;;;;;;5002947;28;20072;-78
2021/06/28 14:15:26;;;;;;;7.10;6.50;;;;;;;;;;4970429;28;20038;-78
2021/06/28 14:17:51;;;;;;;9.02;6.65;;;;;;;;;;4971424;28;20455;-78
2021/06/28 14:20:19;;;;;;;7.20;6.00;;;;;;;;;;4970027;28;20399;-77
2021/06/28 14:22:49;;;;;;;9.70;6.10;;;;;;;;;;4971098;28;20034;-78
2021/06/28 14:25:16;;;;;;;10.55;6.45;;;;;;;;;;4970549;28;20033;-79
2021/06/28 14:27:44;;;;;;;6.78;5.80;;;;;;;;;;4971016;28;20055;-78
2021/06/28 14:30:13;;;;;;;10.35;6.72;;;;;;;;;;4970138;28;20031;-78
2021/06/28 14:32:39;;;;;;;8.07;7.28;;;;;;;;;;4971496;28;20496;-76
2021/06/28 14:35:06;;;;;;;12.13;9.40;;;;;;;;;;4971018;28;20114;-77